createdAt,value
2019-04-04T00:00:39.552Z,6.45
2019-04-04T00:03:09.790Z,6.44
2019-04-04T00:05:40.353Z,6.40
2019-04-04T00:08:10.739Z,6.42
2019-04-04T00:10:41.000Z,6.39
2019-04-04T00:13:11.680Z,6.42
2019-04-04T00:15:45.366Z,6.34
2019-04-04T00:18:17.671Z,6.24
2019-04-04T00:20:49.141Z,6.12
2019-04-04T00:23:20.674Z,6.13
2019-04-04T00:25:52.866Z,6.03
2019-04-04T00:28:23.664Z,5.95
2019-04-04T00:30:55.818Z,5.97
2019-04-04T00:33:26.370Z,5.95
2019-04-04T00:36:06.379Z,5.89
2019-04-04T00:38:44.184Z,5.78
2019-04-04T00:41:16.374Z,5.87
2019-04-04T00:43:51.865Z,5.75
2019-04-04T00:46:26.484Z,5.91
2019-04-04T00:48:57.079Z,5.88
2019-04-04T00:51:34.008Z,5.78
2019-04-04T00:54:04.991Z,5.68
2019-04-04T00:56:41.222Z,5.73
2019-04-04T00:59:11.837Z,5.63
2019-04-04T01:01:44.024Z,5.62
2019-04-04T01:04:14.802Z,5.63
2019-04-04T01:06:50.842Z,5.63
2019-04-04T01:09:21.075Z,5.65
2019-04-04T01:12:05.355Z,5.54
2019-04-04T01:14:37.168Z,5.59
2019-04-04T01:17:19.450Z,5.50
2019-04-04T01:19:49.789Z,5.56
2019-04-04T01:22:20.438Z,5.45
2019-04-04T01:24:50.749Z,5.34
2019-04-04T01:27:20.988Z,5.34
2019-04-04T01:29:53.884Z,5.34
2019-04-04T01:32:24.547Z,5.41
2019-04-04T01:34:55.271Z,5.50
2019-04-04T01:37:27.192Z,5.51
2019-04-04T01:40:12.133Z,5.50
2019-04-04T01:42:42.575Z,5.48
2019-04-04T01:45:19.865Z,5.28
2019-04-04T01:47:51.674Z,5.19
2019-04-04T01:50:24.882Z,5.14
2019-04-04T01:52:59.983Z,5.11
2019-04-04T01:55:29.796Z,5.15
2019-04-04T01:57:59.876Z,5.06
2019-04-04T02:00:30.522Z,4.97
2019-04-04T02:03:16.512Z,5.12
2019-04-04T02:05:46.981Z,5.12
2019-04-04T02:08:17.542Z,5.20
2019-04-04T02:10:47.844Z,5.12
2019-04-04T02:13:18.404Z,5.05
2019-04-04T02:15:48.700Z,5.12
2019-04-04T02:18:19.290Z,5.12
2019-04-04T02:20:58.788Z,5.11
2019-04-04T02:23:38.292Z,5.12
2019-04-04T02:26:08.682Z,5.04
2019-04-04T02:28:40.011Z,5.00
2019-04-04T02:31:11.956Z,5.01
2019-04-04T02:33:42.590Z,5.00
2019-04-04T02:36:16.397Z,5.01
2019-04-04T02:39:07.846Z,4.99
2019-04-04T02:41:38.251Z,4.93
2019-04-04T02:44:09.329Z,4.90
2019-04-04T02:46:44.524Z,4.96
2019-04-04T02:49:12.438Z,5.00
2019-04-04T02:51:42.719Z,4.90
2019-04-04T02:54:13.021Z,4.93
2019-04-04T02:56:43.225Z,4.88
2019-04-04T02:59:13.812Z,4.87
2019-04-04T03:01:44.255Z,4.89
2019-04-04T03:04:14.832Z,4.72
2019-04-04T03:06:45.113Z,4.68
2019-04-04T03:09:15.325Z,4.63
2019-04-04T03:11:45.605Z,4.68
2019-04-04T03:14:16.235Z,4.67
2019-04-04T03:16:46.528Z,4.73
2019-04-04T03:19:17.100Z,4.76
2019-04-04T03:21:48.103Z,4.67
2019-04-04T03:24:19.330Z,4.62
2019-04-04T03:26:52.220Z,4.60
2019-04-04T03:29:23.132Z,4.76
2019-04-04T03:31:53.407Z,4.60
2019-04-04T03:34:25.220Z,4.57
2019-04-04T03:36:55.942Z,4.54
2019-04-04T03:39:27.762Z,4.53
2019-04-04T03:41:59.582Z,4.53
2019-04-04T03:44:29.816Z,4.44
2019-04-04T03:47:00.229Z,4.45
2019-04-04T03:49:30.448Z,4.44
2019-04-04T03:52:00.682Z,4.37
2019-04-04T03:54:30.918Z,4.46
2019-04-04T03:57:01.744Z,4.46
2019-04-04T03:59:33.086Z,4.53
2019-04-04T04:02:03.633Z,4.54
2019-04-04T04:04:34.182Z,4.53
2019-04-04T04:07:05.036Z,4.49
2019-04-04T04:09:35.680Z,4.48
2019-04-04T04:12:10.207Z,4.53
2019-04-04T04:14:38.311Z,4.44
2019-04-04T04:17:09.226Z,4.36
2019-04-04T04:19:40.801Z,4.43
2019-04-04T04:22:12.923Z,4.50
2019-04-04T04:24:43.001Z,4.66
2019-04-04T04:27:15.457Z,4.63
2019-04-04T04:29:45.576Z,4.60
2019-04-04T04:32:15.787Z,4.69
2019-04-04T04:34:46.419Z,4.70
2019-04-04T04:37:19.865Z,4.81
2019-04-04T04:39:48.628Z,4.91
2019-04-04T04:42:21.102Z,4.95
2019-04-04T04:44:51.186Z,5.02
2019-04-04T04:47:23.847Z,5.11
2019-04-04T04:49:55.455Z,5.21
2019-04-04T04:52:25.918Z,5.24
2019-04-04T04:54:56.505Z,5.28
2019-04-04T04:57:29.731Z,5.32
2019-04-04T05:00:01.538Z,5.45
2019-04-04T05:02:32.124Z,5.50
2019-04-04T05:05:02.383Z,5.68
2019-04-04T05:07:33.455Z,5.69
2019-04-04T05:10:06.301Z,6.10
2019-04-04T05:12:37.065Z,6.83
2019-04-04T05:15:09.121Z,7.53
2019-04-04T05:17:39.992Z,7.64
2019-04-04T05:20:13.473Z,7.74
2019-04-04T05:22:45.197Z,7.58
2019-04-04T05:25:15.831Z,7.62
2019-04-04T05:27:46.585Z,7.97
2019-04-04T05:30:20.194Z,8.16
2019-04-04T05:32:50.007Z,8.10
2019-04-04T05:35:21.615Z,8.45
2019-04-04T05:37:51.891Z,8.18
2019-04-04T05:40:23.505Z,8.57
2019-04-04T05:42:54.986Z,9.27
2019-04-04T05:45:25.699Z,9.81
2019-04-04T05:47:58.293Z,10.19
2019-04-04T05:50:28.308Z,10.63
2019-04-04T05:53:02.131Z,11.15
2019-04-04T05:55:32.450Z,11.74
2019-04-04T05:58:02.676Z,11.94
2019-04-04T06:00:33.283Z,11.96
2019-04-04T06:03:03.558Z,11.90
2019-04-04T06:05:34.160Z,12.33
2019-04-04T06:08:07.854Z,12.54
2019-04-04T06:10:37.162Z,13.12
2019-04-04T06:13:07.812Z,13.77
2019-04-04T06:15:38.487Z,14.37
2019-04-04T06:18:10.927Z,15.14
2019-04-04T06:20:40.724Z,15.87
2019-04-04T06:23:10.961Z,15.60
2019-04-04T06:25:41.359Z,14.86
2019-04-04T06:28:12.592Z,15.29
2019-04-04T06:30:43.921Z,15.32
2019-04-04T06:33:14.494Z,14.96
2019-04-04T06:35:47.141Z,14.73
2019-04-04T06:38:17.103Z,14.58
2019-04-04T06:40:49.255Z,14.23
2019-04-04T06:43:19.919Z,14.31
2019-04-04T06:45:50.580Z,14.15
2019-04-04T06:48:22.228Z,14.19
2019-04-04T06:50:52.535Z,13.84
2019-04-04T06:53:23.119Z,14.17
2019-04-04T06:55:54.637Z,15.02
2019-04-04T06:58:25.280Z,15.38
2019-04-04T07:00:55.943Z,15.18
2019-04-04T07:03:27.916Z,15.19
2019-04-04T07:05:58.857Z,15.50
2019-04-04T07:08:29.502Z,15.88
2019-04-04T07:11:02.746Z,16.07
2019-04-04T07:13:42.291Z,17.07
2019-04-04T07:16:08.115Z,17.89
2019-04-04T07:18:40.982Z,18.91
2019-04-04T07:21:12.285Z,18.90
2019-04-04T07:23:42.471Z,18.46
2019-04-04T07:26:14.853Z,18.37
2019-04-04T07:28:45.055Z,18.84
2019-04-04T07:31:16.196Z,18.74
2019-04-04T07:33:46.867Z,18.97
2019-04-04T07:36:20.203Z,19.37
2019-04-04T07:38:50.975Z,19.23
2019-04-04T07:41:21.307Z,18.78
2019-04-04T07:43:52.353Z,19.42
2019-04-04T07:46:22.865Z,19.66
2019-04-04T07:48:53.126Z,19.45
2019-04-04T07:51:23.344Z,19.57
2019-04-04T07:53:54.000Z,19.54
2019-04-04T07:56:24.316Z,19.65
2019-04-04T07:58:54.576Z,20.23
2019-04-04T08:01:24.813Z,21.04
2019-04-04T08:03:55.058Z,21.36
2019-04-04T08:06:25.297Z,21.58
2019-04-04T08:08:55.553Z,22.33
2019-04-04T08:11:25.832Z,22.59
2019-04-04T08:13:56.084Z,22.37
2019-04-04T08:16:26.724Z,22.52
2019-04-04T08:18:57.089Z,22.29
2019-04-04T08:21:27.729Z,20.82
2019-04-04T08:23:58.394Z,20.67
2019-04-04T08:26:29.087Z,20.56
2019-04-04T08:29:03.818Z,20.24
2019-04-04T08:31:34.116Z,19.91
2019-04-04T08:34:05.017Z,20.16
2019-04-04T08:36:35.941Z,20.78
2019-04-04T08:39:08.953Z,20.58
2019-04-04T08:41:39.196Z,20.77
2019-04-04T08:44:09.837Z,20.78
2019-04-04T08:46:40.158Z,20.92
2019-04-04T08:49:10.732Z,20.91
2019-04-04T08:51:41.400Z,21.52
2019-04-04T08:54:11.763Z,22.15
2019-04-04T08:56:41.952Z,22.13
2019-04-04T08:59:12.186Z,22.32
2019-04-04T09:01:42.505Z,22.54
2019-04-04T09:04:13.079Z,22.27
2019-04-04T09:06:44.717Z,22.50
2019-04-04T09:09:15.364Z,22.71
2019-04-04T09:11:47.851Z,22.65
2019-04-04T09:14:18.136Z,22.33
2019-04-04T09:16:48.364Z,22.20
2019-04-04T09:19:21.080Z,21.66
2019-04-04T09:21:51.547Z,21.57
2019-04-04T09:24:21.917Z,22.22
2019-04-04T09:26:53.226Z,22.13
2019-04-04T09:29:23.793Z,21.28
2019-04-04T09:31:54.111Z,21.24
2019-04-04T09:34:24.691Z,21.62
2019-04-04T09:36:55.008Z,21.84
2019-04-04T09:39:25.606Z,20.92
2019-04-04T09:41:55.872Z,20.59
2019-04-04T09:44:27.225Z,20.39
2019-04-04T09:47:05.220Z,20.34
2019-04-04T09:49:29.800Z,20.22
2019-04-04T09:52:01.712Z,20.67
2019-04-04T09:54:32.311Z,21.52
2019-04-04T09:57:02.985Z,22.36
2019-04-04T09:59:33.269Z,22.55
2019-04-04T10:02:04.042Z,21.96
2019-04-04T10:04:36.564Z,21.26
2019-04-04T10:07:06.884Z,21.08
2019-04-04T10:09:37.154Z,20.21
2019-04-04T10:12:07.369Z,19.67
2019-04-04T10:14:38.055Z,19.00
2019-04-04T10:17:08.970Z,18.70
2019-04-04T10:19:39.932Z,18.41
2019-04-04T10:22:10.361Z,18.34
2019-04-04T10:24:40.962Z,17.92
2019-04-04T10:27:11.252Z,17.38
2019-04-04T10:29:41.477Z,16.99
2019-04-04T10:32:13.069Z,16.45
2019-04-04T10:34:44.370Z,16.21
2019-04-04T10:37:14.969Z,16.06
2019-04-04T10:39:45.608Z,15.74
2019-04-04T10:42:18.553Z,15.75
2019-04-04T10:44:49.292Z,15.67
2019-04-04T10:47:19.966Z,15.94
2019-04-04T10:49:50.284Z,16.20
2019-04-04T10:52:20.524Z,16.51
2019-04-04T10:54:51.967Z,16.82
2019-04-04T10:57:22.211Z,16.93
2019-04-04T10:59:54.589Z,17.13
2019-04-04T11:02:25.708Z,16.89
2019-04-04T11:04:56.769Z,16.67
2019-04-04T11:07:28.142Z,16.53
2019-04-04T11:09:58.566Z,16.37
2019-04-04T11:12:34.144Z,16.45
2019-04-04T11:15:03.263Z,16.50
2019-04-04T11:17:33.938Z,16.65
2019-04-04T11:20:06.657Z,16.81
2019-04-04T11:22:37.245Z,16.77
2019-04-04T11:25:08.427Z,16.56
2019-04-04T11:27:39.135Z,16.47
2019-04-04T11:30:11.905Z,16.33
2019-04-04T11:32:43.081Z,16.14
2019-04-04T11:35:13.570Z,16.15
2019-04-04T11:37:45.476Z,16.15
2019-04-04T11:40:16.213Z,16.20
2019-04-04T11:42:46.498Z,16.27
2019-04-04T11:45:17.025Z,16.40
2019-04-04T11:47:47.454Z,16.42
2019-04-04T11:50:17.746Z,16.42
2019-04-04T11:52:48.318Z,16.45
2019-04-04T11:55:19.008Z,16.52
2019-04-04T11:57:49.311Z,16.55
2019-04-04T12:00:21.235Z,16.64
2019-04-04T12:02:51.609Z,16.68
2019-04-04T12:05:22.710Z,16.77
2019-04-04T12:07:52.956Z,16.73
2019-04-04T12:10:23.180Z,16.62
2019-04-04T12:12:53.407Z,16.49
2019-04-04T12:15:24.025Z,16.32
2019-04-04T12:17:54.762Z,16.24
2019-04-04T12:20:26.446Z,16.25
2019-04-04T12:22:57.017Z,16.36
2019-04-04T12:25:27.731Z,16.33
2019-04-04T12:28:01.436Z,16.38
2019-04-04T12:30:31.740Z,16.32
2019-04-04T12:33:01.993Z,16.20
2019-04-04T12:35:32.631Z,16.22
2019-04-04T12:38:03.003Z,16.36
2019-04-04T12:40:33.684Z,16.47
2019-04-04T12:43:04.410Z,16.57
2019-04-04T12:45:37.749Z,16.63
2019-04-04T12:48:09.220Z,16.62
2019-04-04T12:50:40.482Z,16.62
2019-04-04T12:53:11.113Z,16.58
2019-04-04T12:55:41.765Z,16.57
2019-04-04T12:58:12.117Z,16.53
2019-04-04T13:00:43.209Z,16.46
2019-04-04T13:03:13.869Z,16.43
2019-04-04T13:05:44.549Z,16.50
2019-04-04T13:08:16.854Z,16.57
2019-04-04T13:10:47.663Z,16.65
2019-04-04T13:13:18.308Z,16.66
2019-04-04T13:15:49.012Z,16.66
2019-04-04T13:18:19.391Z,16.65
2019-04-04T13:20:51.132Z,16.67
2019-04-04T13:23:21.768Z,16.60
2019-04-04T13:25:52.513Z,16.56
2019-04-04T13:28:24.372Z,16.49
2019-04-04T13:30:54.630Z,16.47
2019-04-04T13:33:24.924Z,16.47
2019-04-04T13:35:55.171Z,16.44
2019-04-04T13:38:25.882Z,16.40
2019-04-04T13:40:59.373Z,16.44
2019-04-04T13:43:29.749Z,16.42
2019-04-04T13:46:00.346Z,16.38
2019-04-04T13:48:31.049Z,16.43
2019-04-04T13:51:01.861Z,16.50
2019-04-04T13:53:34.761Z,16.51
2019-04-04T13:56:07.397Z,16.58
2019-04-04T13:58:39.551Z,16.57
2019-04-04T14:01:10.188Z,16.66
2019-04-04T14:03:40.554Z,16.69
2019-04-04T14:06:11.512Z,16.69
2019-04-04T14:08:42.231Z,16.73
2019-04-04T14:11:12.884Z,16.63
2019-04-04T14:13:44.322Z,16.60
2019-04-04T14:16:17.915Z,16.50
2019-04-04T14:18:48.824Z,16.46
2019-04-04T14:21:19.847Z,16.52
2019-04-04T14:23:52.980Z,16.61
2019-04-04T14:26:23.003Z,16.65
2019-04-04T14:28:53.545Z,16.66
2019-04-04T14:31:24.343Z,16.66
2019-04-04T14:33:55.049Z,16.71
2019-04-04T14:36:26.107Z,16.68
2019-04-04T14:38:57.723Z,16.63
2019-04-04T14:41:27.977Z,16.63
2019-04-04T14:44:00.696Z,16.65
2019-04-04T14:46:31.540Z,16.60
2019-04-04T14:49:02.843Z,16.51
2019-04-04T14:51:33.717Z,16.48
2019-04-04T14:54:04.747Z,16.46
2019-04-04T14:56:36.105Z,16.42
2019-04-04T14:59:06.962Z,16.42
2019-04-04T15:01:39.271Z,16.39
2019-04-04T15:04:10.731Z,16.44
2019-04-04T15:06:41.010Z,16.44
2019-04-04T15:09:11.566Z,16.42
2019-04-04T15:11:41.774Z,16.42
2019-04-04T15:14:12.391Z,16.40
2019-04-04T15:16:43.055Z,16.42
2019-04-04T15:19:13.349Z,16.40
2019-04-04T15:21:43.597Z,16.35
2019-04-04T15:24:14.162Z,16.29
2019-04-04T15:26:44.475Z,16.24
2019-04-04T15:29:16.375Z,16.20
2019-04-04T15:31:46.704Z,16.16
2019-04-04T15:34:16.923Z,16.13
2019-04-04T15:36:48.500Z,16.03
2019-04-04T15:39:19.029Z,15.92
2019-04-04T15:41:49.714Z,15.95
2019-04-04T15:44:20.018Z,15.87
2019-04-04T15:46:50.231Z,15.84
2019-04-04T15:49:20.703Z,15.80
2019-04-04T15:51:50.987Z,15.74
2019-04-04T15:54:21.192Z,15.60
2019-04-04T15:56:51.865Z,15.58
2019-04-04T15:59:22.243Z,15.54
2019-04-04T16:01:52.526Z,15.51
2019-04-04T16:04:22.750Z,15.39
2019-04-04T16:06:52.989Z,15.39
2019-04-04T16:09:23.225Z,15.25
2019-04-04T16:11:53.820Z,15.25
2019-04-04T16:14:24.535Z,15.24
2019-04-04T16:16:54.846Z,15.16
2019-04-04T16:19:25.096Z,15.05
2019-04-04T16:21:56.533Z,14.95
2019-04-04T16:24:27.221Z,14.90
2019-04-04T16:26:58.640Z,14.89
2019-04-04T16:29:29.404Z,14.85
2019-04-04T16:32:00.164Z,14.79
2019-04-04T16:34:30.974Z,14.66
2019-04-04T16:37:01.259Z,14.63
2019-04-04T16:39:31.577Z,14.58
2019-04-04T16:42:02.770Z,14.56
2019-04-04T16:44:33.616Z,14.44
2019-04-04T16:47:04.106Z,14.29
2019-04-04T16:49:38.321Z,14.29
2019-04-04T16:52:09.125Z,14.19
2019-04-04T16:54:39.543Z,14.18
2019-04-04T16:57:09.861Z,14.10
2019-04-04T16:59:40.164Z,14.05
2019-04-04T17:02:10.767Z,13.94
2019-04-04T17:04:41.184Z,13.81
2019-04-04T17:07:13.022Z,13.67
2019-04-04T17:09:43.318Z,13.69
2019-04-04T17:12:15.201Z,13.62
2019-04-04T17:14:46.471Z,13.59
2019-04-04T17:17:17.184Z,13.61
2019-04-04T17:19:47.935Z,13.51
2019-04-04T17:22:18.422Z,13.38
2019-04-04T17:24:50.496Z,13.21
2019-04-04T17:27:20.934Z,13.12
2019-04-04T17:29:52.251Z,13.09
2019-04-04T17:32:23.645Z,13.07
2019-04-04T17:34:54.837Z,12.99
2019-04-04T17:37:25.734Z,12.82
2019-04-04T17:39:56.872Z,12.75
2019-04-04T17:42:31.432Z,12.68
2019-04-04T17:45:02.247Z,12.53
2019-04-04T17:47:32.905Z,12.46
2019-04-04T17:50:04.316Z,12.36
2019-04-04T17:52:35.323Z,12.42
2019-04-04T17:55:08.084Z,12.48
2019-04-04T17:57:39.875Z,12.56
2019-04-04T18:00:14.069Z,12.52
2019-04-04T18:02:44.754Z,12.34
2019-04-04T18:05:15.934Z,12.23
2019-04-04T18:07:46.169Z,12.22
2019-04-04T18:10:18.550Z,12.09
2019-04-04T18:12:49.377Z,11.96
2019-04-04T18:15:20.080Z,11.98
2019-04-04T18:17:51.412Z,11.94
2019-04-04T18:20:22.481Z,12.07
2019-04-04T18:22:52.802Z,12.01
2019-04-04T18:25:24.459Z,11.96
2019-04-04T18:27:54.826Z,11.94
2019-04-04T18:30:25.410Z,11.83
2019-04-04T18:32:57.318Z,11.86
2019-04-04T18:35:28.802Z,11.82
2019-04-04T18:37:59.857Z,11.81
2019-04-04T18:40:30.337Z,11.76
2019-04-04T18:43:00.907Z,11.61
2019-04-04T18:45:31.242Z,11.55
2019-04-04T18:48:01.460Z,11.66
2019-04-04T18:50:32.102Z,11.62
2019-04-04T18:53:02.794Z,11.55
2019-04-04T18:55:33.423Z,11.47
2019-04-04T18:58:04.121Z,11.47
2019-04-04T19:00:34.500Z,11.45
2019-04-04T19:03:06.595Z,11.37
2019-04-04T19:05:37.283Z,11.23
2019-04-04T19:08:08.530Z,11.23
2019-04-04T19:10:39.237Z,11.15
2019-04-04T19:13:09.506Z,11.26
2019-04-04T19:15:40.170Z,11.31
2019-04-04T19:18:13.147Z,11.31
2019-04-04T19:20:43.396Z,11.25
2019-04-04T19:23:16.020Z,11.16
2019-04-04T19:25:46.459Z,11.08
2019-04-04T19:28:17.588Z,11.08
2019-04-04T19:30:48.138Z,11.06
2019-04-04T19:33:18.493Z,10.97
2019-04-04T19:35:50.098Z,10.95
2019-04-04T19:38:20.864Z,10.79
2019-04-04T19:40:53.257Z,10.79
2019-04-04T19:43:24.484Z,10.75
2019-04-04T19:45:55.616Z,10.75
2019-04-04T19:48:26.467Z,10.75
2019-04-04T19:50:58.798Z,10.72
2019-04-04T19:53:29.588Z,10.66
2019-04-04T19:55:59.797Z,10.62
2019-04-04T19:58:30.139Z,10.52
2019-04-04T20:01:01.098Z,10.54
2019-04-04T20:03:31.483Z,10.52
2019-04-04T20:06:02.149Z,10.40
2019-04-04T20:08:32.439Z,10.39
2019-04-04T20:11:02.765Z,10.48
2019-04-04T20:13:37.574Z,10.45
2019-04-04T20:16:12.437Z,10.39
2019-04-04T20:18:43.574Z,10.35
2019-04-04T20:21:15.348Z,10.25
2019-04-04T20:23:46.050Z,10.36
2019-04-04T20:26:16.417Z,10.16
2019-04-04T20:28:46.630Z,10.19
2019-04-04T20:31:16.880Z,10.16
2019-04-04T20:33:47.121Z,10.22
2019-04-04T20:36:17.699Z,10.13
2019-04-04T20:38:49.598Z,10.11
2019-04-04T20:41:20.197Z,10.10
2019-04-04T20:43:50.499Z,10.15
2019-04-04T20:46:21.074Z,10.15
2019-04-04T20:48:52.931Z,10.06
2019-04-04T20:51:24.311Z,10.10
2019-04-04T20:53:56.424Z,10.01
2019-04-04T20:56:26.774Z,9.99
2019-04-04T20:58:57.025Z,9.95
2019-04-04T21:01:28.076Z,9.85
2019-04-04T21:03:58.640Z,9.79
2019-04-04T21:06:29.291Z,9.76
2019-04-04T21:08:59.995Z,9.75
2019-04-04T21:11:30.282Z,9.68
2019-04-04T21:14:00.483Z,9.62
2019-04-04T21:16:30.728Z,9.64
2019-04-04T21:19:01.201Z,9.56
2019-04-04T21:21:31.484Z,9.65
2019-04-04T21:24:02.068Z,9.59
2019-04-04T21:26:32.357Z,9.49
2019-04-04T21:29:02.705Z,9.45
2019-04-04T21:31:32.904Z,9.37
2019-04-04T21:34:03.133Z,9.36
2019-04-04T21:36:33.338Z,9.24
2019-04-04T21:39:04.712Z,9.24
2019-04-04T21:41:35.015Z,9.25
2019-04-04T21:44:09.169Z,9.18
2019-04-04T21:46:37.172Z,9.20
2019-04-04T21:49:07.568Z,9.18
2019-04-04T21:51:38.206Z,9.23
2019-04-04T21:54:08.851Z,9.23
2019-04-04T21:56:39.160Z,9.14
2019-04-04T21:59:09.614Z,9.11
2019-04-04T22:01:40.666Z,9.11
2019-04-04T22:04:11.313Z,8.99
2019-04-04T22:06:41.950Z,9.02
2019-04-04T22:09:27.183Z,8.87
2019-04-04T22:11:57.849Z,8.71
2019-04-04T22:14:28.159Z,8.73
2019-04-04T22:16:58.380Z,8.65
2019-04-04T22:19:28.618Z,8.57
2019-04-04T22:21:59.172Z,8.56
2019-04-04T22:24:29.828Z,8.57
2019-04-04T22:27:00.110Z,8.59
2019-04-04T22:29:30.685Z,8.54
2019-04-04T22:32:01.385Z,8.49
2019-04-04T22:34:31.725Z,8.49
2019-04-04T22:37:01.940Z,8.44
2019-04-04T22:39:32.632Z,8.34
2019-04-04T22:42:05.809Z,8.29
2019-04-04T22:44:36.480Z,8.30
2019-04-04T22:47:06.774Z,8.24
2019-04-04T22:49:36.995Z,8.14
2019-04-04T22:52:07.230Z,8.24
2019-04-04T22:54:37.803Z,8.25
2019-04-04T22:57:08.470Z,8.22
2019-04-04T22:59:39.099Z,8.20
2019-04-04T23:02:09.406Z,8.26
2019-04-04T23:04:39.959Z,8.27
2019-04-04T23:07:10.245Z,8.32
2019-04-04T23:09:40.491Z,8.32
2019-04-04T23:12:11.074Z,8.33
2019-04-04T23:14:48.107Z,8.28
2019-04-04T23:17:13.720Z,8.29
2019-04-04T23:19:43.953Z,8.24
2019-04-04T23:22:14.205Z,8.24
2019-04-04T23:24:44.816Z,8.25
2019-04-04T23:27:15.457Z,8.18
2019-04-04T23:29:45.756Z,8.21
2019-04-04T23:32:16.345Z,8.24
2019-04-04T23:34:46.694Z,8.29
2019-04-04T23:37:16.905Z,8.23
2019-04-04T23:39:47.117Z,8.16
2019-04-04T23:42:17.699Z,8.14
2019-04-04T23:44:59.875Z,8.13
2019-04-04T23:47:20.262Z,8.14
2019-04-04T23:49:50.593Z,8.05
2019-04-04T23:52:21.162Z,8.15
2019-04-04T23:54:51.445Z,8.08
2019-04-04T23:57:22.037Z,7.95
2019-04-04T23:59:52.706Z,7.93
